Suederoog — ZDHC8 — position and weather

sailwx.info

Track history (hours):
 
Tides and Currents Weather Stations Pressure Air Temp Water Temp Dewpoint Dewpoint Depression Visibility Wind Speed Wind Dir Waves Ship Positions

Suederoog

Last reported at 2017-Feb-28 04:31 UTC. Time now 2017-Feb-28 17:14 UTC.
Position N 59°40' E 023°34'.

Length 161 m; draft 9.8 m.

Type: Cargo ship. MMSI: 236300000.

Date/timePositionNaut miles runAvg speedWind from/ knotsBaromVisibWave heightAir tempDewpointWater temp
2017-Feb-28 04:31N 59°40' E 023°34'1712.5
2017-Feb-28 03:11N 59°44' E 024°06'6812.1
2017-Feb-27 21:34N 60°04' E 026°15'1211.6
2017-Feb-27 20:33N 60°15' E 026°25'1110.9
2017-Feb-27 19:34N 60°22' E 026°42'7 7.1
2017-Feb-27 18:31N 60°25' E 026°55'0 0.0
2017-Feb-27 17:31N 60°25' E 026°55'0 0.0
2017-Feb-27 16:31N 60°25' E 026°55'0 0.0
2017-Feb-27 15:31N 60°25' E 026°55'0 0.0
2017-Feb-27 14:31N 60°25' E 026°55'0 0.0
2017-Feb-27 13:31N 60°25' E 026°55'0 0.0
2017-Feb-27 12:31N 60°25' E 026°55'0 0.0
2017-Feb-27 11:31N 60°25' E 026°55'0 0.0
2017-Feb-27 10:31N 60°25' E 026°55'0 0.0
2017-Feb-27 09:31N 60°25' E 026°55'0 0.0
2017-Feb-27 08:31N 60°25' E 026°55'0 0.0
2017-Feb-27 07:31N 60°25' E 026°55'0 0.0
2017-Feb-27 06:31N 60°25' E 026°55'0 0.0
2017-Feb-27 05:31N 60°25' E 026°55'0 0.0
2017-Feb-27 04:31N 60°25' E 026°55'0 0.0
2017-Feb-27 03:31N 60°25' E 026°55'0 0.0
2017-Feb-27 02:31N 60°25' E 026°55'0 0.0
2017-Feb-27 01:31N 60°25' E 026°55'0 0.0
2017-Feb-27 00:31N 60°25' E 026°55'0 0.0
2017-Feb-26 23:31N 60°25' E 026°55'0 0.0
2017-Feb-26 22:31N 60°25' E 026°55'0 0.0
2017-Feb-26 21:31N 60°25' E 026°55'0 0.0
2017-Feb-26 20:31N 60°25' E 026°55'0 0.0
2017-Feb-26 19:31N 60°25' E 026°55'0 0.0
2017-Feb-26 18:31N 60°25' E 026°55'0 0.0
2017-Feb-26 17:31N 60°25' E 026°55'0 0.0
2017-Feb-26 16:31N 60°25' E 026°55'0 0.0
2017-Feb-26 15:31N 60°25' E 026°55'0 0.0
2017-Feb-26 14:31N 60°25' E 026°55'0 0.0
2017-Feb-26 13:31N 60°25' E 026°55'0 0.0
2017-Feb-26 12:31N 60°25' E 026°55'0 0.0
2017-Feb-26 11:31N 60°25' E 026°55'0 0.0
2017-Feb-26 10:31N 60°25' E 026°55'0 0.0
2017-Feb-26 09:31N 60°25' E 026°55'0 0.0
2017-Feb-26 08:31N 60°25' E 026°55'0 0.0
2017-Feb-26 07:31N 60°25' E 026°55'0 0.0
2017-Feb-26 06:31N 60°25' E 026°55'0 0.0
2017-Feb-26 05:31N 60°25' E 026°55'0 0.0
2017-Feb-26 04:31N 60°25' E 026°55'0 0.0
2017-Feb-26 03:31N 60°25' E 026°55'0 0.0
2017-Feb-26 02:31N 60°25' E 026°55'0 0.0
2017-Feb-26 01:31N 60°25' E 026°55'0 0.0
2017-Feb-26 00:31N 60°25' E 026°55'0 0.0
2017-Feb-25 23:33N 60°25' E 026°55'10 9.8
2017-Feb-25 22:33N 60°20' E 026°38'1312.1
2017-Feb-25 21:30N 60°10' E 026°25'1110.5
2017-Feb-25 20:27N 60°03' E 026°42'1010.6
2017-Feb-25 19:33N 59°60' E 027°00'1110.9
2017-Feb-25 18:33N 60°04' E 027°20'1111.2
2017-Feb-25 17:33N 60°10' E 027°39'1010.5
2017-Feb-25 16:33N 60°10' E 028°00'1010.1
2017-Feb-25 15:34N 60°07' E 028°19'1010.1
2017-Feb-25 14:33N 60°03' E 028°38'1111.2
2017-Feb-25 13:32N 60°02' E 029°01'24 9.8
2017-Feb-25 11:07N 59°58' E 029°48'610.8
2017-Feb-25 10:33N 59°56' E 029°59'8 7.7
2017-Feb-25 09:33N 59°52' E 030°12'0 0.0
2017-Feb-25 08:32N 59°52' E 030°12'0 0.0
2017-Feb-25 07:32N 59°52' E 030°12'0 0.0
2017-Feb-25 06:32N 59°52' E 030°12'0 0.0
2017-Feb-25 05:32N 59°52' E 030°12'0 0.0
2017-Feb-25 04:32N 59°52' E 030°12'0 0.0
2017-Feb-25 03:32N 59°52' E 030°12'0 0.0
2017-Feb-25 02:32N 59°52' E 030°12'0 0.0
2017-Feb-25 01:32N 59°52' E 030°12'0 0.0
2017-Feb-25 00:32N 59°52' E 030°12'0 0.0
2017-Feb-24 23:32N 59°52' E 030°12'0 0.0
2017-Feb-24 22:29N 59°52' E 030°12'1 0.6
2017-Feb-24 21:33N 59°53' E 030°12'0 0.0
2017-Feb-24 20:31N 59°53' E 030°12'0 0.0
2017-Feb-24 19:31N 59°53' E 030°12'0 0.0
2017-Feb-24 18:31N 59°53' E 030°12'0 0.0
2017-Feb-24 17:31N 59°53' E 030°12'0 0.0
2017-Feb-24 16:31N 59°53' E 030°12'0 0.0
2017-Feb-24 15:31N 59°53' E 030°12'0 0.0
2017-Feb-24 14:31N 59°53' E 030°12'0 0.0
2017-Feb-24 13:31N 59°53' E 030°12'0 0.0
2017-Feb-24 12:31N 59°53' E 030°12'0 0.0
2017-Feb-24 11:31N 59°53' E 030°12'0 0.0
2017-Feb-24 10:31N 59°53' E 030°12'0 0.0
2017-Feb-24 09:31N 59°53' E 030°12'0 0.0
2017-Feb-24 08:31N 59°53' E 030°12'0 0.0
2017-Feb-24 07:31N 59°53' E 030°12'0 0.0
2017-Feb-24 06:31N 59°53' E 030°12'0 0.0
2017-Feb-24 05:31N 59°53' E 030°12'0 0.0
2017-Feb-24 04:31N 59°53' E 030°12'0 0.0
2017-Feb-24 03:31N 59°53' E 030°12'0 0.2
2017-Feb-24 02:33N 59°53' E 030°12'8 8.4
2017-Feb-24 01:33N 59°56' E 029°56'1110.8
2017-Feb-24 00:33N 60°00' E 029°36'26 8.8
2017-Feb-23 21:33N 60°02' E 028°44'1010.5
2017-Feb-23 20:33N 60°04' E 028°23'1111.4
2017-Feb-23 19:33N 60°09' E 028°02'1211.4
2017-Feb-23 18:28N 60°08' E 027°38'1213.0
2017-Feb-23 17:32N 60°02' E 027°17'1212.3
2017-Feb-23 16:33N 59°59' E 026°54'1312.8
2017-Feb-23 15:34N 59°58' E 026°28'36613.1
2017-Feb-22 11:33N 56°16' E 017°16'1313.1
2017-Feb-22 10:33N 56°08' E 016°58'1313.1
2017-Feb-22 09:34N 56°01' E 016°39'1312.8
2017-Feb-22 08:34N 55°54' E 016°19'1312.5
2017-Feb-22 07:34N 55°49' E 015°59'1212.3
2017-Feb-22 06:34N 55°43' E 015°40'1212.4
2017-Feb-22 05:33N 55°37' E 015°20'1312.5
2017-Feb-22 04:31N 55°30' E 015°01'1212.7
2017-Feb-22 03:33N 55°24' E 014°42'1212.6
2017-Feb-22 02:33N 55°15' E 014°27'1312.6
2017-Feb-22 01:33N 55°05' E 014°13'1312.4
2017-Feb-22 00:32N 54°58' E 013°54'1312.7
2017-Feb-21 23:29N 54°54' E 013°33'1212.5
2017-Feb-21 22:30N 54°50' E 013°12'1212.4
2017-Feb-21 21:33N 54°47' E 012°52'1212.3
2017-Feb-21 20:33N 54°42' E 012°33'1312.6
2017-Feb-21 19:34N 54°34' E 012°16'1111.4
2017-Feb-21 18:34N 54°25' E 012°06'1313.2
2017-Feb-21 17:33N 54°26' E 011°43'1413.6
2017-Feb-21 16:33N 54°32' E 011°22'1313.2
2017-Feb-21 15:33N 54°35' E 010°60'1312.8
2017-Feb-21 14:33N 54°34' E 010°37'54 6.0
2017-Feb-21 05:33N 54°05' E 009°19'7 6.6
2017-Feb-21 04:33N 53°59' E 009°16'3 2.6
2017-Feb-21 03:33N 53°56' E 009°13'4 4.0
2017-Feb-21 02:33N 53°54' E 009°09'1 1.1
2017-Feb-21 01:33N 53°53' E 009°07'1010.1
2017-Feb-21 00:33N 53°48' E 009°23'1514.8
2017-Feb-20 23:34N 53°36' E 009°36'1110.9
2017-Feb-20 22:33N 53°32' E 009°54'1 1.4
2017-Feb-20 21:33N 53°32' E 009°55'0 0.0
2017-Feb-20 20:33N 53°32' E 009°55'0 0.0
2017-Feb-20 19:33N 53°32' E 009°55'0 0.0
2017-Feb-20 18:33N 53°32' E 009°55'0 0.0
2017-Feb-20 17:33N 53°32' E 009°55'0 0.0
2017-Feb-20 16:33N 53°32' E 009°55'0 0.0
2017-Feb-20 15:33N 53°32' E 009°55'0 0.0
2017-Feb-20 14:33N 53°32' E 009°55'1 1.2
2017-Feb-20 13:33N 53°32' E 009°57'0 0.2
2017-Feb-20 12:31N 53°32' E 009°57'0 0.0
2017-Feb-20 11:31N 53°32' E 009°57'0 0.0
2017-Feb-20 10:31N 53°32' E 009°57'0 0.0
2017-Feb-20 09:31N 53°32' E 009°57'0 0.0
2017-Feb-20 08:31N 53°32' E 009°57'0 0.0
2017-Feb-20 07:31N 53°32' E 009°57'0 0.0
2017-Feb-20 06:31N 53°32' E 009°57'0 0.0
2017-Feb-20 05:28N 53°32' E 009°57'0 0.0
2017-Feb-20 04:31N 53°32' E 009°57'0 0.0
2017-Feb-20 03:31N 53°32' E 009°57'0 0.0
2017-Feb-20 02:31N 53°32' E 009°57'0 0.0
2017-Feb-20 01:31N 53°32' E 009°57'0 0.0
2017-Feb-20 00:31N 53°32' E 009°57'0 0.0
2017-Feb-19 23:31N 53°32' E 009°57'0 0.0
2017-Feb-19 22:28N 53°32' E 009°57'0 0.0
2017-Feb-19 21:31N 53°32' E 009°57'0 0.0
2017-Feb-19 20:31N 53°32' E 009°57'0 0.0
2017-Feb-19 19:31N 53°32' E 009°57'0 0.0
2017-Feb-19 18:28N 53°32' E 009°57'0 0.0
2017-Feb-19 17:33N 53°32' E 009°57'6 6.2
2017-Feb-19 16:33N 53°33' E 009°47'1514.7
2017-Feb-19 15:33N 53°43' E 009°28'1615.6
2017-Feb-19 14:34N 53°53' E 009°08'2 2.0
2017-Feb-19 13:33N 53°55' E 009°10'6 6.0
2017-Feb-19 12:33N 53°59' E 009°17'7 7.0
2017-Feb-19 11:32N 54°06' E 009°20'38 4.2
2017-Feb-19 02:23N 54°27' E 010°15'1110.0
2017-Feb-19 01:19N 54°33' E 010°30'810.8
2017-Feb-19 00:33N 54°35' E 010°44'1110.9
2017-Feb-18 23:33N 54°36' E 011°03'1010.4
2017-Feb-18 22:33N 54°33' E 011°20'1514.3
2017-Feb-18 21:33N 54°27' E 011°43'1514.3
2017-Feb-18 20:31N 54°26' E 012°08'1010.6
2017-Feb-18 19:34N 54°35' E 012°16'5911.8
2017-Feb-18 14:33N 55°02' E 013°47'1111.5
2017-Feb-18 13:33N 55°06' E 014°05'1211.7
2017-Feb-18 12:33N 55°15' E 014°18'1211.7
2017-Feb-18 11:34N 55°24' E 014°32'1211.8
2017-Feb-18 10:34N 55°31' E 014°49'1212.0
2017-Feb-18 09:33N 55°37' E 015°07'1212.0
2017-Feb-18 08:33N 55°43' E 015°26'1414.0
2017-Feb-18 07:33N 55°50' E 015°47'1716.7
2017-Feb-18 06:33N 55°59' E 016°12'1716.6
2017-Feb-18 05:33N 56°07' E 016°38'1716.7
2017-Feb-18 04:33N 56°16' E 017°03'  
Track history (hours):
 
Tides and Currents Weather Stations Pressure Air Temp Water Temp Dewpoint Dewpoint Depression Visibility Wind Speed Wind Dir Waves Ship Positions

Suederoog

Last reported at 2017-Feb-28 04:31 UTC. Time now 2017-Feb-28 17:14 UTC.
Position N 59°40' E 023°34'.

Length 161 m; draft 9.8 m.

Type: Cargo ship. MMSI: 236300000.

Date/timePositionNaut miles runAvg speedWind from/ knotsBaromVisibWave heightAir tempDewpointWater temp
2017-Feb-28 04:31N 59°40' E 023°34'1712.5
2017-Feb-28 03:11N 59°44' E 024°06'6812.1
2017-Feb-27 21:34N 60°04' E 026°15'1211.6
2017-Feb-27 20:33N 60°15' E 026°25'1110.9
2017-Feb-27 19:34N 60°22' E 026°42'7 7.1
2017-Feb-27 18:31N 60°25' E 026°55'0 0.0
2017-Feb-27 17:31N 60°25' E 026°55'0 0.0
2017-Feb-27 16:31N 60°25' E 026°55'0 0.0
2017-Feb-27 15:31N 60°25' E 026°55'0 0.0
2017-Feb-27 14:31N 60°25' E 026°55'0 0.0
2017-Feb-27 13:31N 60°25' E 026°55'0 0.0
2017-Feb-27 12:31N 60°25' E 026°55'0 0.0
2017-Feb-27 11:31N 60°25' E 026°55'0 0.0
2017-Feb-27 10:31N 60°25' E 026°55'0 0.0
2017-Feb-27 09:31N 60°25' E 026°55'0 0.0
2017-Feb-27 08:31N 60°25' E 026°55'0 0.0
2017-Feb-27 07:31N 60°25' E 026°55'0 0.0
2017-Feb-27 06:31N 60°25' E 026°55'0 0.0
2017-Feb-27 05:31N 60°25' E 026°55'0 0.0
2017-Feb-27 04:31N 60°25' E 026°55'0 0.0
2017-Feb-27 03:31N 60°25' E 026°55'0 0.0
2017-Feb-27 02:31N 60°25' E 026°55'0 0.0
2017-Feb-27 01:31N 60°25' E 026°55'0 0.0
2017-Feb-27 00:31N 60°25' E 026°55'0 0.0
2017-Feb-26 23:31N 60°25' E 026°55'0 0.0
2017-Feb-26 22:31N 60°25' E 026°55'0 0.0
2017-Feb-26 21:31N 60°25' E 026°55'0 0.0
2017-Feb-26 20:31N 60°25' E 026°55'0 0.0
2017-Feb-26 19:31N 60°25' E 026°55'0 0.0
2017-Feb-26 18:31N 60°25' E 026°55'0 0.0
2017-Feb-26 17:31N 60°25' E 026°55'0 0.0
2017-Feb-26 16:31N 60°25' E 026°55'0 0.0
2017-Feb-26 15:31N 60°25' E 026°55'0 0.0
2017-Feb-26 14:31N 60°25' E 026°55'0 0.0
2017-Feb-26 13:31N 60°25' E 026°55'0 0.0
2017-Feb-26 12:31N 60°25' E 026°55'0 0.0
2017-Feb-26 11:31N 60°25' E 026°55'0 0.0
2017-Feb-26 10:31N 60°25' E 026°55'0 0.0
2017-Feb-26 09:31N 60°25' E 026°55'0 0.0
2017-Feb-26 08:31N 60°25' E 026°55'0 0.0
2017-Feb-26 07:31N 60°25' E 026°55'0 0.0
2017-Feb-26 06:31N 60°25' E 026°55'0 0.0
2017-Feb-26 05:31N 60°25' E 026°55'0 0.0
2017-Feb-26 04:31N 60°25' E 026°55'0 0.0
2017-Feb-26 03:31N 60°25' E 026°55'0 0.0
2017-Feb-26 02:31N 60°25' E 026°55'0 0.0
2017-Feb-26 01:31N 60°25' E 026°55'0 0.0
2017-Feb-26 00:31N 60°25' E 026°55'0 0.0
2017-Feb-25 23:33N 60°25' E 026°55'10 9.8
2017-Feb-25 22:33N 60°20' E 026°38'1312.1
2017-Feb-25 21:30N 60°10' E 026°25'1110.5
2017-Feb-25 20:27N 60°03' E 026°42'1010.6
2017-Feb-25 19:33N 59°60' E 027°00'1110.9
2017-Feb-25 18:33N 60°04' E 027°20'1111.2
2017-Feb-25 17:33N 60°10' E 027°39'1010.5
2017-Feb-25 16:33N 60°10' E 028°00'1010.1
2017-Feb-25 15:34N 60°07' E 028°19'1010.1
2017-Feb-25 14:33N 60°03' E 028°38'1111.2
2017-Feb-25 13:32N 60°02' E 029°01'24 9.8
2017-Feb-25 11:07N 59°58' E 029°48'610.8
2017-Feb-25 10:33N 59°56' E 029°59'8 7.7
2017-Feb-25 09:33N 59°52' E 030°12'0 0.0
2017-Feb-25 08:32N 59°52' E 030°12'0 0.0
2017-Feb-25 07:32N 59°52' E 030°12'0 0.0
2017-Feb-25 06:32N 59°52' E 030°12'0 0.0
2017-Feb-25 05:32N 59°52' E 030°12'0 0.0
2017-Feb-25 04:32N 59°52' E 030°12'0 0.0
2017-Feb-25 03:32N 59°52' E 030°12'0 0.0
2017-Feb-25 02:32N 59°52' E 030°12'0 0.0
2017-Feb-25 01:32N 59°52' E 030°12'0 0.0
2017-Feb-25 00:32N 59°52' E 030°12'0 0.0
2017-Feb-24 23:32N 59°52' E 030°12'0 0.0
2017-Feb-24 22:29N 59°52' E 030°12'1 0.6
2017-Feb-24 21:33N 59°53' E 030°12'0 0.0
2017-Feb-24 20:31N 59°53' E 030°12'0 0.0
2017-Feb-24 19:31N 59°53' E 030°12'0 0.0
2017-Feb-24 18:31N 59°53' E 030°12'0 0.0
2017-Feb-24 17:31N 59°53' E 030°12'0 0.0
2017-Feb-24 16:31N 59°53' E 030°12'0 0.0
2017-Feb-24 15:31N 59°53' E 030°12'0 0.0
2017-Feb-24 14:31N 59°53' E 030°12'0 0.0
2017-Feb-24 13:31N 59°53' E 030°12'0 0.0
2017-Feb-24 12:31N 59°53' E 030°12'0 0.0
2017-Feb-24 11:31N 59°53' E 030°12'0 0.0
2017-Feb-24 10:31N 59°53' E 030°12'0 0.0
2017-Feb-24 09:31N 59°53' E 030°12'0 0.0
2017-Feb-24 08:31N 59°53' E 030°12'0 0.0
2017-Feb-24 07:31N 59°53' E 030°12'0 0.0
2017-Feb-24 06:31N 59°53' E 030°12'0 0.0
2017-Feb-24 05:31N 59°53' E 030°12'0 0.0
2017-Feb-24 04:31N 59°53' E 030°12'0 0.0
2017-Feb-24 03:31N 59°53' E 030°12'0 0.2
2017-Feb-24 02:33N 59°53' E 030°12'8 8.4
2017-Feb-24 01:33N 59°56' E 029°56'1110.8
2017-Feb-24 00:33N 60°00' E 029°36'26 8.8
2017-Feb-23 21:33N 60°02' E 028°44'1010.5
2017-Feb-23 20:33N 60°04' E 028°23'1111.4
2017-Feb-23 19:33N 60°09' E 028°02'1211.4
2017-Feb-23 18:28N 60°08' E 027°38'1213.0
2017-Feb-23 17:32N 60°02' E 027°17'1212.3
2017-Feb-23 16:33N 59°59' E 026°54'1312.8
2017-Feb-23 15:34N 59°58' E 026°28'36613.1
2017-Feb-22 11:33N 56°16' E 017°16'1313.1
2017-Feb-22 10:33N 56°08' E 016°58'1313.1
2017-Feb-22 09:34N 56°01' E 016°39'1312.8
2017-Feb-22 08:34N 55°54' E 016°19'1312.5
2017-Feb-22 07:34N 55°49' E 015°59'1212.3
2017-Feb-22 06:34N 55°43' E 015°40'1212.4
2017-Feb-22 05:33N 55°37' E 015°20'1312.5
2017-Feb-22 04:31N 55°30' E 015°01'1212.7
2017-Feb-22 03:33N 55°24' E 014°42'1212.6
2017-Feb-22 02:33N 55°15' E 014°27'1312.6
2017-Feb-22 01:33N 55°05' E 014°13'1312.4
2017-Feb-22 00:32N 54°58' E 013°54'1312.7
2017-Feb-21 23:29N 54°54' E 013°33'1212.5
2017-Feb-21 22:30N 54°50' E 013°12'1212.4
2017-Feb-21 21:33N 54°47' E 012°52'1212.3
2017-Feb-21 20:33N 54°42' E 012°33'1312.6
2017-Feb-21 19:34N 54°34' E 012°16'1111.4
2017-Feb-21 18:34N 54°25' E 012°06'1313.2
2017-Feb-21 17:33N 54°26' E 011°43'1413.6
2017-Feb-21 16:33N 54°32' E 011°22'1313.2
2017-Feb-21 15:33N 54°35' E 010°60'1312.8
2017-Feb-21 14:33N 54°34' E 010°37'54 6.0
2017-Feb-21 05:33N 54°05' E 009°19'7 6.6
2017-Feb-21 04:33N 53°59' E 009°16'3 2.6
2017-Feb-21 03:33N 53°56' E 009°13'4 4.0
2017-Feb-21 02:33N 53°54' E 009°09'1 1.1
2017-Feb-21 01:33N 53°53' E 009°07'1010.1
2017-Feb-21 00:33N 53°48' E 009°23'1514.8
2017-Feb-20 23:34N 53°36' E 009°36'1110.9
2017-Feb-20 22:33N 53°32' E 009°54'1 1.4
2017-Feb-20 21:33N 53°32' E 009°55'0 0.0
2017-Feb-20 20:33N 53°32' E 009°55'0 0.0
2017-Feb-20 19:33N 53°32' E 009°55'0 0.0
2017-Feb-20 18:33N 53°32' E 009°55'0 0.0
2017-Feb-20 17:33N 53°32' E 009°55'0 0.0
2017-Feb-20 16:33N 53°32' E 009°55'0 0.0
2017-Feb-20 15:33N 53°32' E 009°55'0 0.0
2017-Feb-20 14:33N 53°32' E 009°55'1 1.2
2017-Feb-20 13:33N 53°32' E 009°57'0 0.2
2017-Feb-20 12:31N 53°32' E 009°57'0 0.0
2017-Feb-20 11:31N 53°32' E 009°57'0 0.0
2017-Feb-20 10:31N 53°32' E 009°57'0 0.0
2017-Feb-20 09:31N 53°32' E 009°57'0 0.0
2017-Feb-20 08:31N 53°32' E 009°57'0 0.0
2017-Feb-20 07:31N 53°32' E 009°57'0 0.0
2017-Feb-20 06:31N 53°32' E 009°57'0 0.0
2017-Feb-20 05:28N 53°32' E 009°57'0 0.0
2017-Feb-20 04:31N 53°32' E 009°57'0 0.0
2017-Feb-20 03:31N 53°32' E 009°57'0 0.0
2017-Feb-20 02:31N 53°32' E 009°57'0 0.0
2017-Feb-20 01:31N 53°32' E 009°57'0 0.0
2017-Feb-20 00:31N 53°32' E 009°57'0 0.0
2017-Feb-19 23:31N 53°32' E 009°57'0 0.0
2017-Feb-19 22:28N 53°32' E 009°57'0 0.0
2017-Feb-19 21:31N 53°32' E 009°57'0 0.0
2017-Feb-19 20:31N 53°32' E 009°57'0 0.0
2017-Feb-19 19:31N 53°32' E 009°57'0 0.0
2017-Feb-19 18:28N 53°32' E 009°57'0 0.0
2017-Feb-19 17:33N 53°32' E 009°57'6 6.2
2017-Feb-19 16:33N 53°33' E 009°47'1514.7
2017-Feb-19 15:33N 53°43' E 009°28'1615.6
2017-Feb-19 14:34N 53°53' E 009°08'2 2.0
2017-Feb-19 13:33N 53°55' E 009°10'6 6.0
2017-Feb-19 12:33N 53°59' E 009°17'7 7.0
2017-Feb-19 11:32N 54°06' E 009°20'38 4.2
2017-Feb-19 02:23N 54°27' E 010°15'1110.0
2017-Feb-19 01:19N 54°33' E 010°30'810.8
2017-Feb-19 00:33N 54°35' E 010°44'1110.9
2017-Feb-18 23:33N 54°36' E 011°03'1010.4
2017-Feb-18 22:33N 54°33' E 011°20'1514.3
2017-Feb-18 21:33N 54°27' E 011°43'1514.3
2017-Feb-18 20:31N 54°26' E 012°08'1010.6
2017-Feb-18 19:34N 54°35' E 012°16'5911.8
2017-Feb-18 14:33N 55°02' E 013°47'1111.5
2017-Feb-18 13:33N 55°06' E 014°05'1211.7
2017-Feb-18 12:33N 55°15' E 014°18'1211.7
2017-Feb-18 11:34N 55°24' E 014°32'1211.8
2017-Feb-18 10:34N 55°31' E 014°49'1212.0
2017-Feb-18 09:33N 55°37' E 015°07'1212.0
2017-Feb-18 08:33N 55°43' E 015°26'1414.0
2017-Feb-18 07:33N 55°50' E 015°47'1716.7
2017-Feb-18 06:33N 55°59' E 016°12'1716.6
2017-Feb-18 05:33N 56°07' E 016°38'1716.7
2017-Feb-18 04:33N 56°16' E 017°03'  

Dump ship's entire track history